sensor_id;sensor_type;location;lat;lon;timestamp;pressure;altitude;pressure_sealevel;temperature;humidity
34103;BME280;20381;54.498;18.206;2023-06-24T00:01:52;99876.84;;;15.49;67.32
34103;BME280;20381;54.498;18.206;2023-06-24T00:04:18;99880.08;;;15.47;67.24
34103;BME280;20381;54.498;18.206;2023-06-24T00:06:46;99872.18;;;15.47;67.45
34103;BME280;20381;54.498;18.206;2023-06-24T00:09:12;99880.35;;;15.49;67.39
34103;BME280;20381;54.498;18.206;2023-06-24T00:11:38;99878.16;;;15.49;67.58
34103;BME280;20381;54.498;18.206;2023-06-24T00:14:05;99871.98;;;15.50;67.71
34103;BME280;20381;54.498;18.206;2023-06-24T00:16:32;99873.30;;;15.50;67.68
34103;BME280;20381;54.498;18.206;2023-06-24T00:18:58;99872.90;;;15.49;67.74
34103;BME280;20381;54.498;18.206;2023-06-24T00:21:26;99873.11;;;15.45;67.81
34103;BME280;20381;54.498;18.206;2023-06-24T00:23:58;99877.45;;;15.47;68.02
34103;BME280;20381;54.498;18.206;2023-06-24T00:26:26;99883.42;;;15.49;68.03
34103;BME280;20381;54.498;18.206;2023-06-24T00:28:52;99883.06;;;15.48;68.12
34103;BME280;20381;54.498;18.206;2023-06-24T00:31:19;99887.97;;;15.47;68.34
34103;BME280;20381;54.498;18.206;2023-06-24T00:33:45;99883.62;;;15.45;68.47
34103;BME280;20381;54.498;18.206;2023-06-24T00:36:11;99892.48;;;15.44;68.34
34103;BME280;20381;54.498;18.206;2023-06-24T00:38:37;99883.27;;;15.44;68.56
34103;BME280;20381;54.498;18.206;2023-06-24T00:41:05;99883.83;;;15.42;68.51
34103;BME280;20381;54.498;18.206;2023-06-24T00:43:31;99884.31;;;15.42;68.76
34103;BME280;20381;54.498;18.206;2023-06-24T00:45:58;99883.47;;;15.41;68.74
34103;BME280;20381;54.498;18.206;2023-06-24T00:48:23;99883.95;;;15.41;68.83
34103;BME280;20381;54.498;18.206;2023-06-24T00:50:50;99878.41;;;15.38;68.80
34103;BME280;20381;54.498;18.206;2023-06-24T00:53:17;99879.73;;;15.38;68.95
34103;BME280;20381;54.498;18.206;2023-06-24T00:55:43;99879.33;;;15.37;69.01
34103;BME280;20381;54.498;18.206;2023-06-24T00:58:11;99877.66;;;15.36;69.17
34103;BME280;20381;54.498;18.206;2023-06-24T01:00:42;99874.47;;;15.38;69.12
34103;BME280;20381;54.498;18.206;2023-06-24T01:03:11;99871.83;;;15.38;69.23
34103;BME280;20381;54.498;18.206;2023-06-24T01:05:40;99875.30;;;15.39;69.15
34103;BME280;20381;54.498;18.206;2023-06-24T01:08:07;99875.39;;;15.37;69.38
34103;BME280;20381;54.498;18.206;2023-06-24T01:10:33;99874.07;;;15.37;69.36
34103;BME280;20381;54.498;18.206;2023-06-24T01:12:59;99874.67;;;15.35;69.37
34103;BME280;20381;54.498;18.206;2023-06-24T01:15:25;99868.66;;;15.33;69.56
34103;BME280;20381;54.498;18.206;2023-06-24T01:17:59;99863.47;;;15.32;69.56
34103;BME280;20381;54.498;18.206;2023-06-24T01:20:27;99861.71;;;15.32;69.75
34103;BME280;20381;54.498;18.206;2023-06-24T01:31:06;99866.77;;;15.35;69.96
34103;BME280;20381;54.498;18.206;2023-06-24T01:33:36;99874.67;;;15.35;70.05
34103;BME280;20381;54.498;18.206;2023-06-24T01:36:01;99873.71;;;15.36;70.23
34103;BME280;20381;54.498;18.206;2023-06-24T01:38:35;99868.29;;;15.32;70.28
34103;BME280;20381;54.498;18.206;2023-06-24T01:40:57;99867.90;;;15.31;70.15
34103;BME280;20381;54.498;18.206;2023-06-24T01:43:24;99866.42;;;15.27;70.31
34103;BME280;20381;54.498;18.206;2023-06-24T01:45:51;99869.61;;;15.25;70.42
34103;BME280;20381;54.498;18.206;2023-06-24T01:48:19;99869.61;;;15.25;70.46
34103;BME280;20381;54.498;18.206;2023-06-24T01:50:59;99870.17;;;15.23;70.55
34103;BME280;20381;54.498;18.206;2023-06-24T01:53:27;99864.08;;;15.22;70.63
34103;BME280;20381;54.498;18.206;2023-06-24T01:55:54;99862.40;;;15.21;70.66
34103;BME280;20381;54.498;18.206;2023-06-24T01:58:23;99863.32;;;15.20;70.84
34103;BME280;20381;54.498;18.206;2023-06-24T02:00:49;99855.19;;;15.18;70.64
34103;BME280;20381;54.498;18.206;2023-06-24T02:03:16;99864.55;;;15.15;71.02
34103;BME280;20381;54.498;18.206;2023-06-24T02:05:43;99858.18;;;15.12;70.94
34103;BME280;20381;54.498;18.206;2023-06-24T02:08:10;99868.34;;;15.11;71.16
34103;BME280;20381;54.498;18.206;2023-06-24T02:10:37;99862.33;;;15.09;71.14
34103;BME280;20381;54.498;18.206;2023-06-24T02:13:04;99859.70;;;15.09;71.16
34103;BME280;20381;54.498;18.206;2023-06-24T02:15:31;99854.16;;;15.06;71.25
34103;BME280;20381;54.498;18.206;2023-06-24T02:17:58;99858.58;;;15.06;71.37
34103;BME280;20381;54.498;18.206;2023-06-24T02:20:27;99864.40;;;15.04;71.34
34103;BME280;20381;54.498;18.206;2023-06-24T02:22:55;99865.34;;;15.03;71.53
34103;BME280;20381;54.498;18.206;2023-06-24T02:25:23;99867.62;;;15.02;71.56
34103;BME280;20381;54.498;18.206;2023-06-24T02:27:50;99862.92;;;14.99;71.63
34103;BME280;20381;54.498;18.206;2023-06-24T02:30:18;99866.50;;;14.98;71.58
34103;BME280;20381;54.498;18.206;2023-06-24T02:32:44;99880.68;;;14.96;71.61
34103;BME280;20381;54.498;18.206;2023-06-24T02:35:10;99879.81;;;14.95;71.74
34103;BME280;20381;54.498;18.206;2023-06-24T02:37:36;99885.27;;;14.92;71.72
34103;BME280;20381;54.498;18.206;2023-06-24T02:40:02;99889.20;;;14.92;71.81
34103;BME280;20381;54.498;18.206;2023-06-24T02:42:31;99887.05;;;14.92;71.95
34103;BME280;20381;54.498;18.206;2023-06-24T02:44:56;99889.80;;;14.90;71.91
34103;BME280;20381;54.498;18.206;2023-06-24T02:47:23;99887.17;;;14.90;72.02
34103;BME280;20381;54.498;18.206;2023-06-24T02:49:49;99891.55;;;14.90;71.98
34103;BME280;20381;54.498;18.206;2023-06-24T02:52:17;99888.28;;;14.86;72.02
34103;BME280;20381;54.498;18.206;2023-06-24T02:54:43;99885.84;;;14.83;72.09
34103;BME280;20381;54.498;18.206;2023-06-24T02:57:09;99891.11;;;14.83;72.20
34103;BME280;20381;54.498;18.206;2023-06-24T02:59:36;99895.41;;;14.84;72.35
34103;BME280;20381;54.498;18.206;2023-06-24T03:02:03;99895.41;;;14.84;72.47
34103;BME280;20381;54.498;18.206;2023-06-24T03:04:30;99894.49;;;14.85;72.51
34103;BME280;20381;54.498;18.206;2023-06-24T03:06:56;99901.23;;;14.89;72.52
34103;BME280;20381;54.498;18.206;2023-06-24T03:09:24;99900.31;;;14.90;72.63
34103;BME280;20381;54.498;18.206;2023-06-24T03:11:51;99902.55;;;14.89;72.59
34103;BME280;20381;54.498;18.206;2023-06-24T03:14:18;99912.03;;;14.92;72.69
34103;BME280;20381;54.498;18.206;2023-06-24T03:16:44;99912.88;;;14.92;72.95
34103;BME280;20381;54.498;18.206;2023-06-24T03:19:10;99922.07;;;14.92;72.77
34103;BME280;20381;54.498;18.206;2023-06-24T03:21:36;99915.50;;;14.92;72.73
34103;BME280;20381;54.498;18.206;2023-06-24T03:24:02;99923.50;;;14.91;72.82
34103;BME280;20381;54.498;18.206;2023-06-24T03:26:32;99927.16;;;14.88;72.79
34103;BME280;20381;54.498;18.206;2023-06-24T03:28:58;99932.41;;;14.81;72.77
34103;BME280;20381;54.498;18.206;2023-06-24T03:31:24;99927.34;;;14.78;72.83
34103;BME280;20381;54.498;18.206;2023-06-24T03:33:50;99930.08;;;14.76;73.01
34103;BME280;20381;54.498;18.206;2023-06-24T03:36:16;99928.38;;;14.75;72.97
34103;BME280;20381;54.498;18.206;2023-06-24T03:38:42;99930.27;;;14.73;73.17
34103;BME280;20381;54.498;18.206;2023-06-24T03:41:08;99931.28;;;14.78;73.29
34103;BME280;20381;54.498;18.206;2023-06-24T03:43:34;99932.59;;;14.78;73.30
34103;BME280;20381;54.498;18.206;2023-06-24T03:46:00;99940.67;;;14.75;73.32
34103;BME280;20381;54.498;18.206;2023-06-24T03:48:26;99940.67;;;14.75;73.41
34103;BME280;20381;54.498;18.206;2023-06-24T03:50:52;99949.32;;;14.77;73.46
34103;BME280;20381;54.498;18.206;2023-06-24T03:53:19;99951.58;;;14.76;73.48
34103;BME280;20381;54.498;18.206;2023-06-24T03:55:45;99948.77;;;14.79;73.50
34103;BME280;20381;54.498;18.206;2023-06-24T03:58:11;99941.24;;;14.80;73.48
34103;BME280;20381;54.498;18.206;2023-06-24T04:00:39;99944.05;;;14.84;73.57
34103;BME280;20381;54.498;18.206;2023-06-24T04:03:06;99946.52;;;14.87;73.56
34103;BME280;20381;54.498;18.206;2023-06-24T04:05:33;99946.69;;;14.91;73.62
34103;BME280;20381;54.498;18.206;2023-06-24T04:07:59;99955.33;;;14.93;73.67
34103;BME280;20381;54.498;18.206;2023-06-24T04:10:25;99958.69;;;14.95;73.66
34103;BME280;20381;54.498;18.206;2023-06-24T04:12:51;99958.33;;;15.02;73.80
34103;BME280;20381;54.498;18.206;2023-06-24T04:15:22;99955.31;;;15.08;73.83
34103;BME280;20381;54.498;18.206;2023-06-24T04:17:45;99956.80;;;15.12;73.72
34103;BME280;20381;54.498;18.206;2023-06-24T04:20:11;99950.98;;;15.14;73.68
34103;BME280;20381;54.498;18.206;2023-06-24T04:22:37;99957.17;;;15.20;73.83
34103;BME280;20381;54.498;18.206;2023-06-24T04:25:04;99955.66;;;15.23;73.77
34103;BME280;20381;54.498;18.206;2023-06-24T04:27:32;99958.30;;;15.30;74.00
34103;BME280;20381;54.498;18.206;2023-06-24T04:29:59;99962.97;;;15.39;73.96
34103;BME280;20381;54.498;18.206;2023-06-24T04:32:25;99966.16;;;15.44;73.94
34103;BME280;20381;54.498;18.206;2023-06-24T04:34:51;99965.76;;;15.51;73.86
34103;BME280;20381;54.498;18.206;2023-06-24T04:37:20;99968.78;;;15.52;73.90
34103;BME280;20381;54.498;18.206;2023-06-24T04:39:46;99960.30;;;15.54;74.04
34103;BME280;20381;54.498;18.206;2023-06-24T04:42:14;99965.36;;;15.57;73.98
34103;BME280;20381;54.498;18.206;2023-06-24T04:44:40;99967.27;;;15.55;73.96
34103;BME280;20381;54.498;18.206;2023-06-24T04:47:06;99965.16;;;15.60;74.20
34103;BME280;20381;54.498;18.206;2023-06-24T04:49:32;99966.47;;;15.67;74.33
34103;BME280;20381;54.498;18.206;2023-06-24T04:52:00;99970.23;;;15.77;74.51
34103;BME280;20381;54.498;18.206;2023-06-24T04:54:30;99979.20;;;15.87;74.34
34103;BME280;20381;54.498;18.206;2023-06-24T04:56:56;99977.87;;;15.95;74.35
34103;BME280;20381;54.498;18.206;2023-06-24T04:59:23;99975.95;;;16.04;74.48
34103;BME280;20381;54.498;18.206;2023-06-24T05:01:48;99980.78;;;16.17;74.48
34103;BME280;20381;54.498;18.206;2023-06-24T05:04:16;99975.16;;;16.29;74.43
34103;BME280;20381;54.498;18.206;2023-06-24T05:06:42;99980.41;;;16.36;74.25
34103;BME280;20381;54.498;18.206;2023-06-24T05:09:08;99977.77;;;16.49;74.50
34103;BME280;20381;54.498;18.206;2023-06-24T05:11:37;99988.82;;;16.61;74.42
34103;BME280;20381;54.498;18.206;2023-06-24T05:14:07;99991.53;;;16.80;74.63
34103;BME280;20381;54.498;18.206;2023-06-24T05:16:35;99993.00;;;16.96;74.27
34103;BME280;20381;54.498;18.206;2023-06-24T05:18:58;99991.42;;;17.07;74.31
34103;BME280;20381;54.498;18.206;2023-06-24T05:21:25;99982.89;;;17.21;74.24
34103;BME280;20381;54.498;18.206;2023-06-24T05:23:51;99981.66;;;17.33;74.21
34103;BME280;20381;54.498;18.206;2023-06-24T05:26:17;99977.09;;;17.48;74.16
34103;BME280;20381;54.498;18.206;2023-06-24T05:28:43;99977.78;;;17.62;74.36
34103;BME280;20381;54.498;18.206;2023-06-24T05:31:09;99975.29;;;17.85;74.29
34103;BME280;20381;54.498;18.206;2023-06-24T05:33:35;99972.01;;;18.05;74.15
34103;BME280;20381;54.498;18.206;2023-06-24T05:36:01;99975.80;;;18.25;73.99
34103;BME280;20381;54.498;18.206;2023-06-24T05:38:27;99967.80;;;18.38;73.72
34103;BME280;20381;54.498;18.206;2023-06-24T05:40:53;99970.97;;;18.54;73.72
34103;BME280;20381;54.498;18.206;2023-06-24T05:43:19;99961.84;;;18.70;73.61
34103;BME280;20381;54.498;18.206;2023-06-24T05:45:45;99962.61;;;18.83;73.53
34103;BME280;20381;54.498;18.206;2023-06-24T05:48:11;99961.39;;;18.87;73.24
34103;BME280;20381;54.498;18.206;2023-06-24T05:50:37;99951.89;;;18.90;73.03
34103;BME280;20381;54.498;18.206;2023-06-24T05:53:03;99951.78;;;18.97;73.32
34103;BME280;20381;54.498;18.206;2023-06-24T05:55:30;99951.67;;;19.16;73.37
34103;BME280;20381;54.498;18.206;2023-06-24T05:57:56;99951.27;;;19.32;73.17
34103;BME280;20381;54.498;18.206;2023-06-24T06:00:22;99948.11;;;19.43;72.68
34103;BME280;20381;54.498;18.206;2023-06-24T06:02:49;99942.81;;;19.43;72.65
34103;BME280;20381;54.498;18.206;2023-06-24T06:05:15;99943.04;;;19.52;72.81
34103;BME280;20381;54.498;18.206;2023-06-24T06:07:45;99948.05;;;19.77;73.16
34103;BME280;20381;54.498;18.206;2023-06-24T06:10:11;99949.86;;;20.09;72.64
34103;BME280;20381;54.498;18.206;2023-06-24T06:12:37;99945.85;;;20.35;72.68
34103;BME280;20381;54.498;18.206;2023-06-24T06:15:04;99943.27;;;20.66;72.08
34103;BME280;20381;54.498;18.206;2023-06-24T06:17:32;99936.91;;;20.94;71.77
34103;BME280;20381;54.498;18.206;2023-06-24T06:19:58;99949.70;;;21.35;71.37
34103;BME280;20381;54.498;18.206;2023-06-24T06:22:29;99937.04;;;21.67;71.50
34103;BME280;20381;54.498;18.206;2023-06-24T06:24:55;99946.65;;;22.13;71.24
34103;BME280;20381;54.498;18.206;2023-06-24T06:27:23;99942.13;;;22.52;69.81
34103;BME280;20381;54.498;18.206;2023-06-24T06:29:49;99935.78;;;22.87;70.37
34103;BME280;20381;54.498;18.206;2023-06-24T06:32:15;99942.28;;;23.39;69.83
34103;BME280;20381;54.498;18.206;2023-06-24T06:34:42;99937.22;;;23.64;68.77
34103;BME280;20381;54.498;18.206;2023-06-24T06:37:13;99943.91;;;23.68;68.27
34103;BME280;20381;54.498;18.206;2023-06-24T06:39:46;99944.72;;;23.78;68.10
34103;BME280;20381;54.498;18.206;2023-06-24T06:42:13;99936.80;;;23.86;67.61
34103;BME280;20381;54.498;18.206;2023-06-24T06:44:40;99936.20;;;23.97;67.27
34103;BME280;20381;54.498;18.206;2023-06-24T06:47:06;99935.62;;;24.07;67.28
34103;BME280;20381;54.498;18.206;2023-06-24T06:49:32;99929.73;;;24.21;66.85
34103;BME280;20381;54.498;18.206;2023-06-24T06:51:58;99932.36;;;24.61;67.08
34103;BME280;20381;54.498;18.206;2023-06-24T06:54:24;99933.59;;;25.05;66.19
34103;BME280;20381;54.498;18.206;2023-06-24T06:56:52;99927.74;;;25.44;64.96
34103;BME280;20381;54.498;18.206;2023-06-24T06:59:18;99923.32;;;25.98;65.95
34103;BME280;20381;54.498;18.206;2023-06-24T07:01:44;99926.61;;;26.65;64.98
34103;BME280;20381;54.498;18.206;2023-06-24T07:04:10;99929.03;;;26.95;63.62
34103;BME280;20381;54.498;18.206;2023-06-24T07:06:36;99920.56;;;27.23;63.17
34103;BME280;20381;54.498;18.206;2023-06-24T07:09:02;99934.98;;;27.76;63.47
34103;BME280;20381;54.498;18.206;2023-06-24T07:11:28;99928.52;;;28.50;62.45
34103;BME280;20381;54.498;18.206;2023-06-24T07:13:54;99938.69;;;29.04;61.84
34103;BME280;20381;54.498;18.206;2023-06-24T07:16:20;99935.02;;;29.41;60.66
34103;BME280;20381;54.498;18.206;2023-06-24T07:18:46;99932.17;;;29.85;60.24
34103;BME280;20381;54.498;18.206;2023-06-24T07:21:11;99942.55;;;30.60;60.08
34103;BME280;20381;54.498;18.206;2023-06-24T07:23:38;99944.62;;;31.71;59.09
34103;BME280;20381;54.498;18.206;2023-06-24T07:26:03;99949.27;;;32.50;56.83
34103;BME280;20381;54.498;18.206;2023-06-24T07:28:29;99950.14;;;33.23;56.30
34103;BME280;20381;54.498;18.206;2023-06-24T07:30:55;99955.91;;;33.78;55.77
34103;BME280;20381;54.498;18.206;2023-06-24T07:33:21;99958.61;;;34.69;54.80
34103;BME280;20381;54.498;18.206;2023-06-24T07:35:47;99960.84;;;35.55;53.93
34103;BME280;20381;54.498;18.206;2023-06-24T07:38:13;99960.52;;;36.38;52.36
34103;BME280;20381;54.498;18.206;2023-06-24T07:40:39;99964.27;;;36.69;50.47
34103;BME280;20381;54.498;18.206;2023-06-24T07:43:05;99961.75;;;36.80;49.86
34103;BME280;20381;54.498;18.206;2023-06-24T07:45:31;99960.69;;;37.18;49.15
34103;BME280;20381;54.498;18.206;2023-06-24T07:47:57;99961.87;;;37.80;47.56
34103;BME280;20381;54.498;18.206;2023-06-24T07:50:23;99965.46;;;37.97;46.59
34103;BME280;20381;54.498;18.206;2023-06-24T07:52:50;99966.23;;;38.43;46.41
34103;BME280;20381;54.498;18.206;2023-06-24T07:55:16;99970.30;;;38.99;42.61
34103;BME280;20381;54.498;18.206;2023-06-24T07:57:45;99968.97;;;39.48;43.21
34103;BME280;20381;54.498;18.206;2023-06-24T08:00:11;99971.40;;;39.74;42.17
34103;BME280;20381;54.498;18.206;2023-06-24T08:02:38;99972.98;;;40.24;42.17
34103;BME280;20381;54.498;18.206;2023-06-24T08:05:05;99980.19;;;40.81;40.60
34103;BME280;20381;54.498;18.206;2023-06-24T08:07:31;99976.59;;;41.33;40.54
34103;BME280;20381;54.498;18.206;2023-06-24T08:09:58;99985.80;;;42.10;39.22
34103;BME280;20381;54.498;18.206;2023-06-24T08:12:24;99984.07;;;42.83;37.92
34103;BME280;20381;54.498;18.206;2023-06-24T08:14:50;99991.75;;;42.86;36.26
34103;BME280;20381;54.498;18.206;2023-06-24T08:17:16;99993.37;;;42.87;35.16
34103;BME280;20381;54.498;18.206;2023-06-24T08:19:42;99998.31;;;42.88;35.26
34103;BME280;20381;54.498;18.206;2023-06-24T08:22:10;99995.79;;;43.02;34.23
34103;BME280;20381;54.498;18.206;2023-06-24T08:24:36;100000.28;;;42.67;32.89
34103;BME280;20381;54.498;18.206;2023-06-24T08:27:02;99995.87;;;42.71;31.84
34103;BME280;20381;54.498;18.206;2023-06-24T08:29:28;100002.23;;;42.51;31.53
34103;BME280;20381;54.498;18.206;2023-06-24T08:31:54;100008.02;;;42.24;30.90
34103;BME280;20381;54.498;18.206;2023-06-24T08:34:20;100010.69;;;41.73;30.53
34103;BME280;20381;54.498;18.206;2023-06-24T08:36:48;100008.23;;;41.69;30.25
34103;BME280;20381;54.498;18.206;2023-06-24T08:39:14;100007.66;;;40.96;29.53
34103;BME280;20381;54.498;18.206;2023-06-24T08:41:40;100016.83;;;40.72;29.44
34103;BME280;20381;54.498;18.206;2023-06-24T08:44:06;100013.70;;;41.03;29.30
34103;BME280;20381;54.498;18.206;2023-06-24T08:46:32;100021.38;;;41.01;28.86
34103;BME280;20381;54.498;18.206;2023-06-24T08:49:07;100022.20;;;41.59;28.74
34103;BME280;20381;54.498;18.206;2023-06-24T08:51:31;100027.78;;;42.36;28.02
34103;BME280;20381;54.498;18.206;2023-06-24T08:53:59;100020.56;;;42.91;27.92
34103;BME280;20381;54.498;18.206;2023-06-24T08:56:26;100021.48;;;43.42;27.43
34103;BME280;20381;54.498;18.206;2023-06-24T08:58:52;100013.14;;;44.36;27.27
34103;BME280;20381;54.498;18.206;2023-06-24T09:01:18;100005.74;;;45.08;26.42
34103;BME280;20381;54.498;18.206;2023-06-24T09:03:44;100019.09;;;45.23;25.64
34103;BME280;20381;54.498;18.206;2023-06-24T09:06:10;100015.38;;;45.54;25.29
34103;BME280;20381;54.498;18.206;2023-06-24T09:08:36;100029.52;;;45.47;25.22
34103;BME280;20381;54.498;18.206;2023-06-24T09:11:06;100032.87;;;45.82;24.43
34103;BME280;20381;54.498;18.206;2023-06-24T09:13:34;100026.63;;;46.28;24.39
34103;BME280;20381;54.498;18.206;2023-06-24T09:16:13;100023.20;;;46.80;23.98
34103;BME280;20381;54.498;18.206;2023-06-24T09:18:40;100031.00;;;46.92;23.65
34103;BME280;20381;54.498;18.206;2023-06-24T09:21:07;100026.72;;;46.56;23.20
34103;BME280;20381;54.498;18.206;2023-06-24T09:23:43;100030.64;;;46.66;22.34
34103;BME280;20381;54.498;18.206;2023-06-24T09:26:10;100030.95;;;46.67;22.28
34103;BME280;20381;54.498;18.206;2023-06-24T09:28:37;100029.40;;;46.88;22.24
34103;BME280;20381;54.498;18.206;2023-06-24T09:31:08;100027.95;;;47.94;21.62
34103;BME280;20381;54.498;18.206;2023-06-24T09:33:31;100023.92;;;48.23;21.18
34103;BME280;20381;54.498;18.206;2023-06-24T09:35:57;100019.13;;;48.03;20.66
34103;BME280;20381;54.498;18.206;2023-06-24T09:38:35;100023.05;;;47.80;20.79
34103;BME280;20381;54.498;18.206;2023-06-24T09:41:03;100030.20;;;48.03;20.38
34103;BME280;20381;54.498;18.206;2023-06-24T09:43:30;100027.77;;;48.67;20.07
34103;BME280;20381;54.498;18.206;2023-06-24T09:45:57;100030.92;;;49.02;19.74
34103;BME280;20381;54.498;18.206;2023-06-24T09:48:28;100032.63;;;49.38;19.21
34103;BME280;20381;54.498;18.206;2023-06-24T09:50:54;100031.80;;;49.29;18.95
34103;BME280;20381;54.498;18.206;2023-06-24T09:53:21;100020.56;;;49.34;18.19
34103;BME280;20381;54.498;18.206;2023-06-24T09:55:48;100028.22;;;49.28;18.90
34103;BME280;20381;54.498;18.206;2023-06-24T09:58:14;100022.02;;;49.58;18.63
34103;BME280;20381;54.498;18.206;2023-06-24T10:00:43;100020.93;;;49.59;17.63
34103;BME280;20381;54.498;18.206;2023-06-24T10:03:10;100023.67;;;49.41;18.07
34103;BME280;20381;54.498;18.206;2023-06-24T10:05:37;100029.53;;;49.57;17.43
34103;BME280;20381;54.498;18.206;2023-06-24T10:08:04;100029.08;;;49.81;17.44
34103;BME280;20381;54.498;18.206;2023-06-24T10:10:31;100029.48;;;49.60;17.26
34103;BME280;20381;54.498;18.206;2023-06-24T10:12:57;100022.52;;;49.25;17.01
34103;BME280;20381;54.498;18.206;2023-06-24T10:15:23;100021.13;;;49.25;17.42
34103;BME280;20381;54.498;18.206;2023-06-24T10:17:52;100012.03;;;49.13;17.24
34103;BME280;20381;54.498;18.206;2023-06-24T10:20:24;100011.66;;;49.26;16.75
34103;BME280;20381;54.498;18.206;2023-06-24T10:22:55;100018.74;;;48.92;16.87
34103;BME280;20381;54.498;18.206;2023-06-24T10:25:23;100014.14;;;48.68;16.91
34103;BME280;20381;54.498;18.206;2023-06-24T10:27:55;100017.46;;;48.47;16.81
34103;BME280;20381;54.498;18.206;2023-06-24T10:30:22;100018.14;;;47.99;16.60
34103;BME280;20381;54.498;18.206;2023-06-24T10:32:52;100016.64;;;46.32;16.57
34103;BME280;20381;54.498;18.206;2023-06-24T10:35:24;100020.96;;;45.03;17.00
34103;BME280;20381;54.498;18.206;2023-06-24T10:37:58;100017.56;;;44.32;17.37
34103;BME280;20381;54.498;18.206;2023-06-24T10:40:34;100021.81;;;44.16;17.44
34103;BME280;20381;54.498;18.206;2023-06-24T10:43:02;100017.80;;;44.64;17.92
34103;BME280;20381;54.498;18.206;2023-06-24T10:45:29;100022.16;;;45.99;17.61
34103;BME280;20381;54.498;18.206;2023-06-24T10:47:55;100026.63;;;45.95;17.39
34103;BME280;20381;54.498;18.206;2023-06-24T10:50:23;100025.38;;;45.47;17.41
34103;BME280;20381;54.498;18.206;2023-06-24T10:52:50;100023.00;;;44.08;17.21
34103;BME280;20381;54.498;18.206;2023-06-24T10:55:18;100017.63;;;42.44;17.52
34103;BME280;20381;54.498;18.206;2023-06-24T10:57:45;100035.53;;;40.18;17.92
34103;BME280;20381;54.498;18.206;2023-06-24T11:00:12;100036.36;;;38.31;18.43
34103;BME280;20381;54.498;18.206;2023-06-24T11:02:38;100042.25;;;36.90;19.11
34103;BME280;20381;54.498;18.206;2023-06-24T11:05:06;100036.52;;;35.81;19.51
34103;BME280;20381;54.498;18.206;2023-06-24T11:07:32;100040.66;;;35.35;20.08
34103;BME280;20381;54.498;18.206;2023-06-24T11:10:11;100044.06;;;35.89;20.71
34103;BME280;20381;54.498;18.206;2023-06-24T11:12:35;100046.39;;;36.57;20.76
34103;BME280;20381;54.498;18.206;2023-06-24T11:15:02;100047.16;;;36.90;20.67
34103;BME280;20381;54.498;18.206;2023-06-24T11:17:29;100045.98;;;36.30;20.75
34103;BME280;20381;54.498;18.206;2023-06-24T11:19:56;100047.29;;;35.30;21.13
34103;BME280;20381;54.498;18.206;2023-06-24T11:22:24;100046.02;;;34.39;21.75
34103;BME280;20381;54.498;18.206;2023-06-24T11:24:52;100049.58;;;33.70;22.17
34103;BME280;20381;54.498;18.206;2023-06-24T11:27:27;100049.75;;;33.16;22.72
34103;BME280;20381;54.498;18.206;2023-06-24T11:29:52;100053.73;;;32.54;23.09
34103;BME280;20381;54.498;18.206;2023-06-24T11:32:18;100050.44;;;31.77;23.44
34103;BME280;20381;54.498;18.206;2023-06-24T11:34:46;100048.89;;;31.20;24.00
34103;BME280;20381;54.498;18.206;2023-06-24T11:37:12;100052.70;;;30.97;24.62
34103;BME280;20381;54.498;18.206;2023-06-24T11:39:39;100051.96;;;31.10;24.99
34103;BME280;20381;54.498;18.206;2023-06-24T11:42:08;100052.36;;;31.42;25.47
34103;BME280;20381;54.498;18.206;2023-06-24T11:44:35;100051.13;;;31.44;25.59
34103;BME280;20381;54.498;18.206;2023-06-24T11:47:07;100056.30;;;31.87;26.02
34103;BME280;20381;54.498;18.206;2023-06-24T11:49:49;100054.27;;;32.47;26.55
34103;BME280;20381;54.498;18.206;2023-06-24T11:52:20;100060.41;;;33.27;26.16
34103;BME280;20381;54.498;18.206;2023-06-24T11:54:43;100054.84;;;33.96;25.83
34103;BME280;20381;54.498;18.206;2023-06-24T11:57:12;100059.77;;;34.13;25.45
34103;BME280;20381;54.498;18.206;2023-06-24T11:59:41;100056.71;;;33.44;25.44
34103;BME280;20381;54.498;18.206;2023-06-24T12:02:12;100051.87;;;32.74;25.92
34103;BME280;20381;54.498;18.206;2023-06-24T12:04:43;100055.13;;;32.23;26.13
34103;BME280;20381;54.498;18.206;2023-06-24T12:07:07;100052.27;;;31.70;26.52
34103;BME280;20381;54.498;18.206;2023-06-24T12:09:33;100052.23;;;31.22;26.73
34103;BME280;20381;54.498;18.206;2023-06-24T12:12:03;100045.31;;;31.06;27.07
34103;BME280;20381;54.498;18.206;2023-06-24T12:14:30;100057.53;;;30.91;27.37
34103;BME280;20381;54.498;18.206;2023-06-24T12:17:00;100056.45;;;30.75;27.45
34103;BME280;20381;54.498;18.206;2023-06-24T12:19:28;100061.94;;;30.60;27.68
34103;BME280;20381;54.498;18.206;2023-06-24T12:21:53;100064.53;;;30.25;27.98
34103;BME280;20381;54.498;18.206;2023-06-24T12:24:19;100063.71;;;29.88;28.87
34103;BME280;20381;54.498;18.206;2023-06-24T12:26:45;100064.92;;;29.86;28.67
34103;BME280;20381;54.498;18.206;2023-06-24T12:29:12;100061.95;;;29.81;28.81
34103;BME280;20381;54.498;18.206;2023-06-24T12:31:38;100062.17;;;29.64;28.95
34103;BME280;20381;54.498;18.206;2023-06-24T12:34:05;100060.41;;;29.42;29.07
34103;BME280;20381;54.498;18.206;2023-06-24T12:36:33;100064.03;;;29.05;28.95
34103;BME280;20381;54.498;18.206;2023-06-24T12:38:59;100056.22;;;28.57;29.46
34103;BME280;20381;54.498;18.206;2023-06-24T12:41:25;100060.89;;;28.09;30.16
34103;BME280;20381;54.498;18.206;2023-06-24T12:43:52;100061.47;;;27.61;30.25
34103;BME280;20381;54.498;18.206;2023-06-24T12:46:18;100055.57;;;27.14;30.38
34103;BME280;20381;54.498;18.206;2023-06-24T12:48:44;100050.97;;;26.83;31.01
34103;BME280;20381;54.498;18.206;2023-06-24T12:51:10;100044.47;;;26.61;30.85
34103;BME280;20381;54.498;18.206;2023-06-24T12:53:38;100049.30;;;26.41;31.21